Tiempo atmosférico en la estación meteorológica de Llerena, Badajoz (655 m.)



Fecha
DESCASC
Temp. máxima en grados centígrados (hora)
DESCASC
Temp. mínima en grados centígrados (hora)
DESCASC
Temp. media en grados centígrados
DESCASC
Racha de viento máxima en m/sg (hora)
DESCASC
Velocidad máxima media en intervalos de 10 minutos(hora)
DESCASC
Precipitaciones diarias en mm
DESCASC
Precipitaciones de 00:00 a 06:00 en mm
DESCASC
Precipitaciones de 06:00 a 12:00 en mm
DESCASC
Precipitaciones de 12:00 a 18:00 en mm
DESCASC
Precipitaciones de 18:00 a 24:00 en mm
DESCASC
22-11-2020 16.5 (16:30) 8.3 (08:30) 12.4 10.28 (01:40) 7.5 (01:40) 0 0 0 0 0
21-11-2020 19.7 (15:20) 7 (06:50) 13.4 11.39 (11:00) 7.78 (22:00) 0 0 0 0 0
20-11-2020 19.3 (14:40) 11.2 (08:10) 15.2 9.17 (17:10) 6.39 (17:10) 0 0 0 0 0
19-11-2020 22 (14:30) 11.9 (00:00) 16.9 10.56 (14:20) 6.67 (16:10) 0 0 0 0 0
18-11-2020 24.9 (14:20) 13.4 (00:00) 19.1 4.17 (11:30) 3.33 (11:30) 0 0 0 0 0
17-11-2020 21.9 (13:20) 10.6 (00:00) 16.3 8.61 (16:00) 6.39 (16:00) 0.2 0.2 0 0 0
16-11-2020 20.9 (14:50) 12.3 (00:00) 16.6 8.06 (00:10) 5.28 (00:10) 0 0 0 0 0
15-11-2020 21.1 (15:50) 14.1 (00:00) 17.6 12.22 (10:30) 8.61 (06:00) 0.2 0 0.2 0 0
14-11-2020 18.3 (15:40) 13.4 (00:00) 15.8 10.56 (05:40) 8.06 (05:00) 1.8 1.6 0.2 0 0
13-11-2020 17.1 (11:50) 9.5 (00:00) 13.3 7.78 (12:50) 5.28 (12:50) 0 0 0 0 0
12-11-2020 17.4 (16:00) 9.8 (00:00) 13.6 7.78 (14:50) 5.56 (13:10) 0 0 0 0 0
11-11-2020 18.8 (14:40) 9 (00:00) 13.9 8.89 (12:20) 6.11 (13:10) 0 0 0 0 0
10-11-2020 17.2 (15:20) 8.6 (00:00) 12.9 7.5 (15:00) 4.72 (16:30) 0.2 0.2 0 0 0
09-11-2020 17.2 (15:40) 10.5 (00:00) 13.9 8.33 (00:50) 6.11 (01:40) 4.4 4.4 0 0 0
08-11-2020 17.3 (15:50) 11.5 (00:00) 14.4 9.44 (09:50) 6.11 (15:30) 0.8 0 0 0 0.8
07-11-2020 17.1 (15:40) 10.4 (00:00) 13.8 14.44 (00:40) 8.89 (00:40) 4.8 4.8 0 0 0
06-11-2020 21.1 (14:20) 12.5 (00:00) 16.8 15.83 (01:10) 10 (01:00) 0.4 0 0 0 0.4
05-11-2020 14.7 (23:50) 10.9 (00:00) 12.8 15 (07:20) 8.89 (07:20) 13.2 9 4 0.2 0
04-11-2020 15.9 (11:10) 10.4 (00:00) 13.1 10.28 (16:30) 7.22 (16:50) 8.8 0 0.2 5.6 3
03-11-2020 15.6 (17:20) 12.2 (00:00) 13.9 4.72 (13:20) 3.06 (12:30) 1.6 0 0.4 1.2 0
02-11-2020 24.1 (15:20) 10.9 (00:00) 17.5 5.28 (17:50) 3.61 (16:20) 0 0 0 0 0
01-11-2020 22.1 (15:40) 12 (00:00) 17.1 4.72 (13:10) 2.78 (11:00) 0 0 0 0 0
31-10-2020 24.3 (14:00) 13.5 (00:00) 18.9 6.39 (14:00) 3.61 (14:40) 0 0 0 0 0
30-10-2020 25 (15:20) 12.3 (00:00) 18.7 7.78 (12:10) 5 (12:20) 0 0 0 0 0
29-10-2020 23 (15:40) 11.3 (00:00) 17.2 5.83 (11:50) 4.72 (19:10) 0 0 0 0 0
28-10-2020 18.4 (15:40) 9 (00:00) 13.7 6.11 (15:20) 3.61 (15:20) 0 0 0 0 0
27-10-2020 15.6 (14:30) 5.9 (00:00) 10.8 6.39 (15:40) 3.89 (15:40) 0 0 0 0 0

Gráficas

Temp. máximas Temp. mínimas Temp. medias Precipitaciones Rachas de viento máximas Velocidades máximas media en intervalos de 10 minutos

Datos horarios

Fecha y hora oficial Temperatura (ºC) Velocidad del viento (km/h) Dirección del viento Racha (km/h) Dirección de racha Precipitación (mm) Presión (hPa) Tendencia (hPa) Humedad (%)
2020-11-25 23:00:00 -- -- -- -- -- -- -- -- --
2020-11-25 22:00:00 -- -- -- -- -- -- -- -- --
2020-11-25 21:00:00 -- -- -- -- -- -- -- -- --
2020-11-25 20:00:00 -- -- -- -- -- -- -- -- --
2020-11-25 19:00:00 -- -- -- -- -- -- -- -- --
2020-11-25 18:00:00 -- -- -- -- -- -- -- -- --
2020-11-25 17:00:00 10 22 Sur 48 Sudeste 0 934 -1.7 91
2020-11-25 16:00:00 10.1 27 Sur 48 Sur 0 934.4 -2.5 91
2020-11-25 15:00:00 11.1 24 Sur 42 Sudeste 0 934.9 -3.4 86
2020-11-25 14:00:00 10.8 31 Sur 43 Sudeste 0.2 935.7 -2.9 86
2020-11-25 13:00:00 10.2 23 Sur 39 Sur 4 936.9 -- 88
2020-11-25 12:00:00 11 15 Sur 44 Sur 0.6 938.3 -- 90
2020-11-25 11:00:00 11.2 31 Sur 47 Sudeste 0 938.6 -- 87
2020-11-25 10:00:00 11 35 Sur 50 Sudeste 0 938.7 -- 89
2020-11-25 09:00:00 10.2 31 Sur 47 Sur 0 938.9 -- 90
2020-11-25 08:00:00 9.8 31 Sur 42 Sur 0 939.3 -- 89
2020-11-25 07:00:00 9.4 27 Sur 37 Sur 0 939.6 -- 88
2020-11-25 06:00:00 9.2 27 Sur 37 Sur 0 939.9 -- 89
2020-11-25 05:00:00 9.2 21 Sur 28 Sudoeste 0 940.7 -- 90
2020-11-25 04:00:00 9.5 15 Sur 22 Sur 0 941.5 -- 90
2020-11-25 03:00:00 9.7 15 Sur 22 Sur 0 941.8 -- 89
2020-11-25 02:00:00 9.9 12 Sur 17 Sur 0 942.4 -- 87
2020-11-25 01:00:00 10.7 12 Sudoeste 18 Sudoeste 0 943.1 -- 86
2020-11-25 00:00:00 10.8 13 Sur 18 Sur 0 943.4 -- 87
2020-11-24 23:00:00 10.2 9 Sur 14 Sur 0 943.7 -- 84
2020-11-24 22:00:00 10.4 8 Sur 11 Sudoeste 0 944.1 -- 82
2020-11-24 21:00:00 11.2 4 Sudoeste 13 Sur 0 944.2 -- 79
2020-11-24 20:00:00 11.7 6 Sur 11 Sudeste 0 944.4 -- 77
2020-11-24 19:00:00 11.9 0 Calma 15 Sur 0 944.7 -- 72
2020-11-24 18:00:00 12.5 8 Sur 14 Sudoeste 0 944.8 -- 69
2020-11-24 17:00:00 13 10 Sudoeste 23 Sudoeste 0 944.8 -- 64
2020-11-24 16:00:00 13.5 11 Sudoeste 25 Sudoeste 0 945 -- 61
2020-11-24 15:00:00 15.2 17 Sudoeste 28 Sudoeste 0 945.5 -- 59
2020-11-24 14:00:00 14.4 9 Sudoeste 22 Sudoeste 0 946.3 -- 59
2020-11-24 13:00:00 15.2 13 Oeste 21 Sudoeste 0 947.1 -- 56
2020-11-24 12:00:00 14.8 5 Oeste 10 Oeste 0 947.9 -- 55
2020-11-24 11:00:00 13.3 7 Oeste 12 Oeste 0 948.3 -- 60
2020-11-24 10:00:00 12.1 8 Sudoeste 12 Sudoeste 0 948.2 -- 65
2020-11-24 09:00:00 8.8 10 Sudoeste 14 Sudoeste 0 947.9 -- 71
2020-11-24 08:00:00 8.3 10 Sudoeste 13 Sudoeste 0 947.5 -- 72
2020-11-24 07:00:00 7.8 10 Sudoeste 13 Sudoeste 0 947.2 -- 72
2020-11-24 06:00:00 7.7 4 Sudoeste 7 Sudoeste 0 947.1 -- 67
2020-11-24 05:00:00 7.4 0 Calma 12 Este 0 947.2 -- 66
2020-11-24 04:00:00 8.2 6 Sudeste 17 Sur 0 947.6 -- 61
2020-11-24 03:00:00 8 0 Calma 11 Sur 0 948 -- 67
2020-11-24 02:00:00 8.5 3 Sudoeste 6 Sudoeste 0 948.3 -- 66
2020-11-24 01:00:00 9.2 4 Este 9 Este 0 948.7 -- 65
2020-11-24 00:00:00 9.6 2 Sudeste 19 Sur 0 949 -- 65
2020-11-23 23:00:00 8.6 8 Sudeste 14 Sudeste 0 949.3 -- 66
2020-11-23 22:00:00 9.7 7 Este 11 Este 0 949.4 -- 68
2020-11-23 21:00:00 10 3 Noroeste 17 Sur 0 949.5 -- 68
2020-11-23 20:00:00 10.5 15 Sur 19 Sur 0 949.3 -- 70
2020-11-23 19:00:00 10.7 14 Sur 17 Sur 0 949.1 -- 68
2020-11-23 18:00:00 13 12 Sur 18 Sur 0 948.9 -- 61
2020-11-23 17:00:00 16.6 7 Sur 12 Sudoeste 0 948.6 -- 50
2020-11-23 16:00:00 16.3 4 Este 10 Este 0 948.8 -- 46
2020-11-23 15:00:00 16.6 6 Este 18 Sudoeste 0 949 -- 46
2020-11-23 14:00:00 16.3 4 Sudeste 15 Sudeste 0 949.6 -- 53
2020-11-23 13:00:00 14.8 9 Sudeste 15 Sudeste 0 950.3 -- 53
2020-11-23 12:00:00 15.5 7 Sur 15 Sur 0 951 -- 52
2020-11-23 11:00:00 14.3 9 Sudeste 13 Sudeste 0 950.9 -- 57
2020-11-23 10:00:00 11.9 9 Este 16 Este 0 950.6 -- 66
2020-11-23 09:00:00 8.5 3 Norte 10 Este 0 950.3 -- 80
2020-11-23 08:00:00 8.2 6 Este 17 Sudeste 0 949.8 -- 83
2020-11-23 07:00:00 8.2 12 Sudeste 17 Sudeste 0 949.4 -- 85
2020-11-23 06:00:00 8.3 9 Sudeste 11 Sudeste 0 949.5 -- 83
2020-11-23 05:00:00 9.4 10 Este 14 Este 0 949.6 -- 78
2020-11-23 04:00:00 9.3 13 Este 15 Este 0 949.9 -- 77
2020-11-23 03:00:00 9.2 10 Este 12 Este 0 950 -- 74
2020-11-23 02:00:00 9.2 6 Este 8 Este 0 950.3 -- 72
2020-11-23 01:00:00 9.6 4 Sudeste 9 Sudeste 0 950.5 -- 75
2020-11-23 00:00:00 9 6 Sudeste 8 Este 0 950.5 -- 76
2020-11-22 23:00:00 9 6 Sudeste 7 Sudeste 0 950.7 -- 78
2020-11-22 22:00:00 8.9 5 Sudeste 6 Sudeste 0 950.6 -- 77
2020-11-22 21:00:00 9.9 0 Calma 8 Norte 0 950.5 -- 74
2020-11-22 20:00:00 10.6 4 Sudeste 9 Sudeste 0 950 -- 72
2020-11-22 19:00:00 11.1 9 Sur 9 Sudeste 0 949.7 -- 69
2020-11-22 18:00:00 13.7 7 Sudeste 12 Sudeste 0 949.7 -- 58
2020-11-22 17:00:00 16.1 9 Sudeste 17 Este 0 949.5 -- 50
2020-11-22 16:00:00 16.4 11 Sudeste 23 Este 0 949.5 -- 48
2020-11-22 15:00:00 15.9 14 Este 23 Sudeste 0 949.8 -- 49
2020-11-22 14:00:00 15.6 16 Este 26 Este 0 950.4 -- 53
2020-11-22 13:00:00 15 17 Sudeste 26 Este 0 951.1 -- 58
2020-11-22 12:00:00 13.9 17 Sudeste 25 Este 0 951.6 -- 67
2020-11-22 11:00:00 12.8 17 Este 24 Sudeste 0 951.8 -- 73
2020-11-22 10:00:00 11.6 14 Este 21 Este 0 951.4 -- 76
2020-11-22 09:00:00 9.5 13 Sudeste 17 Sudeste 0 951.2 -- 83
2020-11-22 08:00:00 8.4 11 Este 15 Sudeste 0 950.8 -- 83
2020-11-22 07:00:00 8.7 3 Este 12 Sudeste 0 950.5 -- 86
2020-11-22 06:00:00 9.1 6 Este 19 Sudeste 0 950.3 -- 82
2020-11-22 05:00:00 9.1 9 Sudeste 14 Sudeste 0 950 -- 85
2020-11-22 04:00:00 9.5 12 Sudeste 19 Sudeste 0 950.2 -- 85
2020-11-22 03:00:00 9.1 10 Este 14 Este 0 950 -- 85
2020-11-22 02:00:00 11.4 22 Sudeste 37 Sur 0 950 -- 75
2020-11-22 01:00:00 11.5 21 Sur 35 Sur 0 950.1 -- 74
2020-11-22 00:00:00 11.8 27 Sur 37 Sur 0 950.1 -- 75
2020-11-21 23:00:00 11.8 24 Sur 36 Sur 0 949.9 -- 72
2020-11-21 22:00:00 12.4 28 Sur 37 Sur 0 949.9 -- 69
2020-11-21 21:00:00 12.8 22 Sur 27 Sur 0 949.7 -- 76
2020-11-21 20:00:00 12.8 12 Sudeste 22 Sudeste 0 949.6 -- 76
2020-11-21 19:00:00 13.7 17 Sudeste 24 Sur 0 949.5 -- 73
2020-11-21 18:00:00 15.6 16 Sur 24 Sur 0 948.9 -- 67
2020-11-21 17:00:00 18 14 Sudoeste 22 Sudoeste 0 948.6 -- 63
2020-11-21 16:00:00 19.5 10 Sudeste 18 Sur 0 948.3 -- 53
2020-11-21 15:00:00 19.1 9 Sudeste 18 Sudeste 0 948.4 -- 54
2020-11-21 14:00:00 18.9 7 Sudeste 19 Sudeste 0 948.7 -- 56
2020-11-21 13:00:00 18.7 10 Sudeste 23 Sudeste 0 949.4 -- 55
2020-11-21 12:00:00 17 10 Sudeste 32 Sur 0 949.9 -- 61
2020-11-21 11:00:00 15.9 26 Sur 41 Sur 0 949.5 -- 65
2020-11-21 10:00:00 13.5 14 Este 28 Sudeste 0 949.6 -- 68
2020-11-21 09:00:00 11.2 19 Sudeste 27 Sudeste 0 949.2 -- 50
2020-11-21 08:00:00 10.4 16 Sudeste 24 Sudeste 0 948.5 -- 62
2020-11-21 07:00:00 7.1 15 Este 19 Este 0 948.5 -- 62
2020-11-21 06:00:00 7.9 14 Este 18 Este 0 948.3 -- 58
2020-11-21 05:00:00 8.4 12 Este 18 Este 0 948.2 -- 55
2020-11-21 04:00:00 9.6 12 Este 21 Este 0 948.6 -- 50
2020-11-21 03:00:00 11.3 19 Este 26 Este 0 948.5 -- 44
2020-11-21 02:00:00 11.8 14 Este 22 Sudeste 0 948.9 -- 40
2020-11-21 01:00:00 12.3 15 Este 26 Este 0 949.3 -- 37
2020-11-21 00:00:00 12.6 13 Este 22 Este 0 949.5 -- 37
2020-11-20 23:00:00 13 17 Este 22 Este 0 949.4 -- 35
2020-11-20 22:00:00 12.9 13 Este 24 Este 0 949.6 -- 37
2020-11-20 21:00:00 13.1 15 Este 21 Este 0 949.4 -- 39
2020-11-20 20:00:00 14.2 13 Este 23 Este 0 949.8 -- 37
2020-11-20 19:00:00 14.1 13 Este 21 Este 0 950 -- 39
2020-11-20 18:00:00 16 9 Este 33 Nordeste 0 949.9 -- 38
2020-11-20 17:00:00 18.1 21 Nordeste 32 Este 0 949.7 -- 30
2020-11-20 16:00:00 19.1 14 Nordeste 27 Este 0 949.8 -- 30
2020-11-20 15:00:00 19.1 17 Nordeste 26 Nordeste 0 950.1 -- 34
2020-11-20 14:00:00 19.1 17 Nordeste 27 Este 0 950.8 -- 35
2020-11-20 13:00:00 18.3 20 Este 29 Este 0 951.7 -- 44
2020-11-20 12:00:00 16.5 17 Este 26 Este 0 952.3 -- 64
2020-11-20 11:00:00 14.2 14 Este 20 Este 0 952.4 -- 75
2020-11-20 10:00:00 12.8 14 Este 21 Este 0 952.3 -- 76
2020-11-20 09:00:00 12.4 9 Este 18 Sudeste 0 951.9 -- 75
2020-11-20 08:00:00 11.5 14 Este 22 Sudeste 0 951.8 -- 78
2020-11-20 07:00:00 12 11 Este 21 Sudeste 0 951.8 -- 76
2020-11-20 06:00:00 12.3 13 Sudeste 19 Este 0 951.9 -- 74
2020-11-20 05:00:00 12.8 11 Este 16 Este 0 952.2 -- 71
2020-11-20 04:00:00 13.6 9 Este 18 Sudeste 0 952.5 -- 68
2020-11-20 03:00:00 13.5 15 Este 21 Sudeste 0 952.6 -- 70
2020-11-20 02:00:00 13.1 11 Este 15 Este 0 953.1 -- 76
2020-11-20 01:00:00 13.6 10 Este 14 Este 0 953.6 -- 79
2020-11-20 00:00:00 13.9 9 Este 16 Nordeste 0 953.7 -- 77
2020-11-19 23:00:00 14.7 8 Nordeste 13 Nordeste 0 953.9 -- 74
2020-11-19 22:00:00 14.3 6 Este 8 Este 0 954.1 -- 76
2020-11-19 21:00:00 14.9 3 Este 12 Norte 0 954.2 -- 75
2020-11-19 20:00:00 16.1 3 Noroeste 11 Norte 0 954.1 -- 67
2020-11-19 19:00:00 17.8 6 Norte 15 Norte 0 953.7 -- 59
2020-11-19 18:00:00 19.6 8 Nordeste 23 Este 0 953.2 -- 50
2020-11-19 17:00:00 20.9 16 Este 37 Nordeste 0 952.9 -- 44
2020-11-19 16:00:00 21.5 22 Nordeste 34 Nordeste 0 953.3 -- 39
2020-11-19 15:00:00 21.8 22 Nordeste 38 Este 0 953.3 -- 37
2020-11-19 14:00:00 21.5 17 Nordeste 29 Nordeste 0 953.4 -- 41
2020-11-19 13:00:00 20.5 10 Nordeste 19 Este 0 953.8 -- 46
2020-11-19 12:00:00 18.9 12 Este 17 Este 0 954.1 -- 62
2020-11-19 11:00:00 17.5 12 Este 19 Este 0 953.9 -- 58
2020-11-19 10:00:00 15.8 10 Este 16 Este 0 953.5 -- 66
2020-11-19 09:00:00 13.5 10 Este 15 Este 0 952.8 -- 75
2020-11-19 08:00:00 12.2 12 Este 14 Este 0 952 -- 80
2020-11-19 07:00:00 12.9 10 Este 13 Este 0 951.5 -- 79
2020-11-19 06:00:00 14.3 9 Este 19 Este 0 951.2 -- 71
2020-11-19 05:00:00 14.5 12 Este 18 Sudeste 0 951.1 -- 71
2020-11-19 04:00:00 14.6 13 Este 17 Este 0 951.1 -- 73
2020-11-19 03:00:00 14.8 14 Este 19 Sudeste 0 951 -- 76
2020-11-19 02:00:00 14.3 13 Este 17 Este 0 951.1 -- 74
2020-11-19 01:00:00 14.7 12 Este 16 Este 0 951.3 -- 75
2020-11-19 00:00:00 15.2 11 Este 13 Este 0 951.6 -- 72
2020-11-18 23:00:00 15.3 8 Este 14 Este 0 951.5 -- 70
2020-11-18 22:00:00 15.8 8 Este 10 Este 0 951.3 -- 68
2020-11-18 21:00:00 15.7 4 Sudeste 14 Norte 0 951.2 -- 70
2020-11-18 20:00:00 17.1 6 Sudeste 6 Sudeste 0 950.9 -- 61
2020-11-18 19:00:00 18.8 3 Este 6 Sudeste 0 950.6 -- 55
2020-11-18 18:00:00 20.8 5 Sur 8 Sudeste 0 950.2 -- 54
2020-11-18 17:00:00 23.8 6 Oeste 9 Oeste 0 950 -- 41
2020-11-18 16:00:00 24.1 5 Este 12 Sudeste 0 950 -- 39
2020-11-18 15:00:00 24.1 8 Este 12 Sudoeste 0 950.1 -- 37
2020-11-18 14:00:00 24.6 5 Sudoeste 11 Sudoeste 0 950.5 -- 37
2020-11-18 13:00:00 22.8 4 Este 11 Este 0 951.1 -- 42
2020-11-18 12:00:00 21.4 7 Este 15 Este 0 951.6 -- 49
2020-11-18 11:00:00 20.8 2 Noroeste 4 Noroeste 0 951.6 -- 42
2020-11-18 10:00:00 18.9 2 Oeste 12 Sudeste 0 951.5 -- 43
2020-11-18 09:00:00 15.3 8 Sudeste 10 Sudeste 0 951 -- 52
2020-11-18 08:00:00 14.1 3 Sur 10 Sudeste 0 950.8 -- 52
2020-11-18 07:00:00 13.7 8 Sudeste 9 Sudeste 0 950.6 -- 56
2020-11-18 06:00:00 13.7 6 Sudeste 9 Este 0 950.5 -- 56
2020-11-18 05:00:00 14.9 4 Este 6 Este 0 950.4 -- 53
2020-11-18 04:00:00 15.8 7 Sudoeste 9 Sudoeste 0 950.6 -- 49
2020-11-18 03:00:00 16.3 8 Sudoeste 10 Sur 0 950.6 -- 48
2020-11-18 02:00:00 16.3 9 Sur 12 Sur 0 951 -- 52
2020-11-18 01:00:00 16.6 9 Sudoeste 11 Sudoeste 0 951.1 -- 49
2020-11-18 00:00:00 16.6 8 Sudoeste 12 Sur 0 951.3 -- 53
2020-11-17 23:00:00 16.3 6 Sudoeste 12 Sudoeste 0 951.5 -- 68
2020-11-17 22:00:00 16.5 5 Sur 8 Sur 0 951.4 -- 75
2020-11-17 21:00:00 16.7 8 Sur 16 Sur 0 951.2 -- 83
2020-11-17 20:00:00 17.2 13 Sur 18 Sur 0 950.9 -- 81
2020-11-17 19:00:00 17.5 11 Sudoeste 20 Sudoeste 0 950.7 -- 79
2020-11-17 18:00:00 19 4 Sur 23 Sudoeste 0 950.5 -- 74
2020-11-17 17:00:00 20.5 14 Sur 28 Sudoeste 0 950.3 -- 68
2020-11-17 16:00:00 21 23 Sudoeste 31 Sudoeste 0 950.2 -- 67
2020-11-17 15:00:00 21.2 22 Sudoeste 28 Sudoeste 0 950.2 -- 66
2020-11-17 14:00:00 21.5 13 Sur 21 Sudoeste 0 950.5 -- 65
2020-11-17 13:00:00 21.6 9 Sudoeste 16 Sudoeste 0 950.8 -- 60
2020-11-17 12:00:00 20.6 5 Sudeste 9 Sudoeste 0 951.3 -- 56
2020-11-17 11:00:00 18.7 0 Calma 4 Este 0 951.3 -- 68
2020-11-17 10:00:00 16.4 0 Calma 4 Sur 0 951 -- 79
2020-11-17 09:00:00 13.6 4 Noroeste 5 Noroeste 0 950.4 -- 89
2020-11-17 08:00:00 10.8 0 Calma 8 Este 0 950 -- 91
2020-11-17 07:00:00 11 4 Este 6 Este 0 949.6 -- 92
2020-11-17 06:00:00 12 5 Este 6 Este 0.2 949.5 -- 92
2020-11-17 05:00:00 12.7 2 Este 8 Sudoeste 0 949.5 -- 93
2020-11-17 04:00:00 12.8 5 Este 8 Nordeste 0 949.8 -- 93
2020-11-17 03:00:00 12.6 2 Sudeste 6 Sur 0 949.8 -- 93
2020-11-17 02:00:00 13 4 Norte 9 Sudeste 0 949.9 -- 93
2020-11-17 01:00:00 12.9 5 Oeste 10 Este 0 950 -- 91
2020-11-17 00:00:00 13.4 6 Este 12 Sudeste 0 950.3 -- 93
2020-11-16 23:00:00 13.1 6 Sudeste 9 Este 0 950.3 -- 92
2020-11-16 22:00:00 13 5 Sudeste 8 Sudeste 0 950.2 -- 89
2020-11-16 21:00:00 14 2 Este 4 Nordeste 0 950 -- 89
2020-11-16 20:00:00 14.8 0 Calma 6 Norte 0 949.6 -- 86
2020-11-16 19:00:00 16 3 Norte 6 Nordeste 0 949 -- 83
2020-11-16 18:00:00 17.5 3 Nordeste 11 Norte 0 948.8 -- 78
2020-11-16 17:00:00 18.7 6 Norte 22 Noroeste 0 948.8 -- 73
2020-11-16 16:00:00 20 13 Noroeste 20 Norte 0 948.6 -- 68
2020-11-16 15:00:00 20.5 6 Noroeste 10 Noroeste 0 948.5 -- 66
2020-11-16 14:00:00 19.7 3 Este 8 Norte 0 948.8 -- 70
2020-11-16 13:00:00 19.1 0 Calma 10 Norte 0 949.3 -- 71
2020-11-16 12:00:00 18.1 4 Oeste 7 Oeste 0 949.7 -- 76
2020-11-16 11:00:00 15.8 3 Nordeste 8 Norte 0 949.5 -- 88
2020-11-16 10:00:00 15.1 5 Oeste 10 Oeste 0 949 -- 94
2020-11-16 09:00:00 14.4 7 Noroeste 12 Noroeste 0 948.4 -- 95
2020-11-16 08:00:00 13.7 8 Oeste 12 Oeste 0 948.1 -- 95
2020-11-16 07:00:00 13.9 9 Oeste 16 Oeste 0 947.9 -- 95
2020-11-16 06:00:00 13.6 11 Sudoeste 19 Sudoeste 0 947.2 -- 94
2020-11-16 05:00:00 13.8 9 Oeste 12 Sudoeste 0 947.2 -- 93
2020-11-16 04:00:00 14.2 6 Sudoeste 12 Sudoeste 0 947.2 -- 91
2020-11-16 03:00:00 14.5 9 Sudoeste 17 Oeste 0 947.7 -- 89
2020-11-16 02:00:00 15.5 15 Sudoeste 22 Sudoeste 0 947.7 -- 83
2020-11-16 01:00:00 15.8 10 Sudoeste 29 Sudoeste 0 947.8 -- 85
2020-11-16 00:00:00 16.2 18 Sudoeste 28 Sudoeste 0 947.2 -- 83
2020-11-15 23:00:00 16.6 22 Sur 30 Sudoeste 0 947 -- 83
2020-11-15 22:00:00 16.8 22 Sur 34 Sur 0 947.1 -- 82
2020-11-15 21:00:00 17 24 Sur 33 Sur 0 946.8 -- 81
2020-11-15 20:00:00 17.2 22 Sur 30 Sur 0 946.7 -- 79
2020-11-15 19:00:00 17.5 16 Sur 23 Sur 0 947 -- 77
2020-11-15 18:00:00 18.6 12 Sur 28 Sudoeste 0 946.3 -- 74
2020-11-15 17:00:00 20.3 16 Sudoeste 30 Sudoeste 0 946.3 -- 65
2020-11-15 16:00:00 20.9 21 Sudoeste 31 Sudoeste 0 946 -- 65
2020-11-15 15:00:00 20.4 21 Sudoeste 37 Sudoeste 0 946.1 -- 67
2020-11-15 14:00:00 19.9 25 Sudoeste 38 Sur 0 946.2 -- 69
2020-11-15 13:00:00 19.2 22 Sudoeste 39 Sudoeste 0 946.9 -- 74
2020-11-15 12:00:00 17.9 27 Sur 38 Sur 0 947.1 -- 79
2020-11-15 11:00:00 16.9 30 Sur 44 Sur 0 946.8 -- 82
2020-11-15 10:00:00 15.6 28 Sur 41 Sudoeste 0 946.8 -- 88
2020-11-15 09:00:00 14.7 30 Sur 40 Sur 0 946.3 -- 89
2020-11-15 08:00:00 14.3 27 Sur 41 Sur 0 946.1 -- 93
2020-11-15 07:00:00 14.4 27 Sur 40 Sur 0.2 945.8 -- 92
2020-11-15 06:00:00 14.3 31 Sur 41 Sudoeste 0 945.8 -- 93
2020-11-15 05:00:00 14.2 27 Sur 36 Sur 0 945.7 -- 94
2020-11-15 04:00:00 14.2 26 Sur 36 Sur 0 946 -- 94
2020-11-15 03:00:00 14.1 26 Sur 38 Sur 0 945.9 -- 94
2020-11-15 02:00:00 14.1 23 Sur 31 Sur 0 946.1 -- 93
2020-11-15 01:00:00 14.1 5 Sur 26 Sudoeste 0 946.6 -- 93
2020-11-15 00:00:00 14.5 18 Sudoeste 28 Sudoeste 0 947 -- 94
2020-11-14 23:00:00 14.6 17 Sur 25 Sudoeste 0 947 -- 93
2020-11-14 22:00:00 14.6 14 Sudoeste 19 Sudoeste 0 946.9 -- 92
2020-11-14 21:00:00 15.1 11 Sudoeste 20 Sur 0 946.8 -- 92
2020-11-14 20:00:00 15.1 12 Sudoeste 16 Sudoeste 0 946.4 -- 89
2020-11-14 19:00:00 14.9 9 Sudoeste 17 Sudoeste 0 946 -- 86
2020-11-14 18:00:00 16.3 10 Oeste 24 Oeste 0 945.4 -- 76
2020-11-14 17:00:00 16.8 10 Sudoeste 26 Sudoeste 0 945 -- 82
2020-11-14 16:00:00 17.1 16 Sudoeste 31 Sudoeste 0 944.6 -- 80
2020-11-14 15:00:00 16.3 21 Sudoeste 31 Sudoeste 0 944.4 -- 83
2020-11-14 14:00:00 16.1 18 Sudoeste 29 Sudoeste 0 944.8 -- 89
2020-11-14 13:00:00 14.6 17 Sudoeste 35 Sudoeste 0 945.3 -- 93
2020-11-14 12:00:00 14.6 23 Sudoeste 35 Sudoeste 0 945.4 -- 94
2020-11-14 11:00:00 14 23 Sur 33 Sur 0 945.1 -- 94
2020-11-14 10:00:00 13.5 18 Sur 30 Sur 0 945 -- 94
2020-11-14 09:00:00 13.4 21 Sur 34 Sur 0 944.5 -- 93
2020-11-14 08:00:00 13.6 19 Sur 30 Sudeste 0.2 944 -- 93
2020-11-14 07:00:00 13.6 16 Sur 36 Sudoeste 0 943.7 -- 93
2020-11-14 06:00:00 13.6 24 Sur 38 Sur 0 943.4 -- 91
2020-11-14 05:00:00 13.6 29 Sur 37 Sur 0 943.4 -- 91
2020-11-14 04:00:00 13.7 22 Sur 29 Sur 0 943.8 -- 90
2020-11-14 03:00:00 13.5 17 Sur 23 Sur 0.6 944.2 -- 92
2020-11-14 02:00:00 13.8 16 Sur 24 Sur 1 944.5 -- 90
2020-11-14 01:00:00 14.2 13 Sur 23 Sudeste 0 944.9 -- 86
2020-11-14 00:00:00 14.4 8 Sur 21 Sur 0 945.2 -- 82
2020-11-13 23:00:00 14.5 12 Sur 24 Sudeste 0 945.2 -- 78
2020-11-13 22:00:00 14.4 10 Sudeste 19 Sudeste 0 945 -- 80
2020-11-13 21:00:00 14.7 6 Sudeste 17 Sur 0 944.8 -- 81
2020-11-13 20:00:00 14.6 8 Sur 17 Sudoeste 0 944.5 -- 81
2020-11-13 19:00:00 14.5 10 Sur 21 Sudeste 0 944.1 -- 80
2020-11-13 18:00:00 15 8 Sudeste 20 Sur 0 943.9 -- 77
2020-11-13 17:00:00 15.9 13 Sur 26 Sudoeste 0 943.8 -- 72
2020-11-13 16:00:00 16.9 19 Sudoeste 26 Sudoeste 0 943.7 -- 68
2020-11-13 15:00:00 17 14 Sur 23 Sudoeste 0 943.9 -- 67
2020-11-13 14:00:00 16.8 15 Sur 25 Sudoeste 0 944.4 -- 68
2020-11-13 13:00:00 16.8 17 Sudoeste 28 Sudoeste 0 945 -- 69
2020-11-13 12:00:00 17 13 Sur 22 Sur 0 945.3 -- 64
2020-11-13 11:00:00 15.3 13 Sudeste 18 Sudeste 0 945.2 -- 74
2020-11-13 10:00:00 13.5 6 Este 14 Sudeste 0 945.1 -- 80
2020-11-13 09:00:00 10.4 6 Este 9 Este 0 944.5 -- 86
2020-11-13 08:00:00 10.3 4 Este 7 Este 0 943.9 -- 83
2020-11-13 07:00:00 10.6 5 Este 6 Este 0 943.7 -- 83
2020-11-13 06:00:00 9.9 3 Sudeste 5 Este 0 943.7 -- 82
2020-11-13 05:00:00 10.2 4 Sudeste 6 Sur 0 943.4 -- 82
2020-11-13 04:00:00 9.9 0 Calma 6 Este 0 943.6 -- 87
2020-11-13 03:00:00 9.7 3 Sudeste 8 Este 0 943.8 -- 86
2020-11-13 02:00:00 9.9 5 Este 8 Este 0 943.9 -- 83
2020-11-13 01:00:00 11.3 2 Nordeste 8 Este 0 944.1 -- 78
2020-11-13 00:00:00 11.7 4 Este 17 Sudeste 0 944.2 -- 76
2020-11-12 23:00:00 11.6 11 Sudeste 16 Sudeste 0 944 -- 75
2020-11-12 22:00:00 11.7 14 Sudeste 16 Sudeste 0 944.1 -- 76
2020-11-12 21:00:00 11.6 13 Sur 15 Sur 0 943.7 -- 76
2020-11-12 20:00:00 12.2 14 Sur 16 Sur 0 943.8 -- 72
2020-11-12 19:00:00 12.8 13 Sur 16 Sur 0 943.8 -- 70
2020-11-12 18:00:00 15.2 12 Sur 17 Sur 0 943.5 -- 61
2020-11-12 17:00:00 16.8 10 Sudeste 22 Este 0 943.6 -- 56
2020-11-12 16:00:00 17.4 16 Sudeste 27 Este 0 943.2 -- 51
2020-11-12 15:00:00 16.9 15 Este 28 Este 0 943.5 -- 54
2020-11-12 14:00:00 16.6 15 Este 27 Sudeste 0 944.2 -- 59
2020-11-12 13:00:00 16.3 19 Este 25 Este 0 944.9 -- 64
2020-11-12 12:00:00 14.9 13 Sudeste 25 Este 0 945.7 -- 75
2020-11-12 11:00:00 14.2 15 Este 22 Sudeste 0 945.8 -- 76
2020-11-12 10:00:00 11.9 12 Este 17 Este 0 946 -- 85
2020-11-12 09:00:00 10.4 12 Este 13 Este 0 945.8 -- 87
2020-11-12 08:00:00 10.2 9 Este 14 Este 0 945.5 -- 85
2020-11-12 07:00:00 11.3 7 Este 15 Sudeste 0 945.3 -- 80
2020-11-12 06:00:00 11.4 8 Este 14 Este 0 945.3 -- 82
2020-11-12 05:00:00 10.8 10 Sudeste 15 Sudeste 0 945.5 -- 84
2020-11-12 04:00:00 11.6 9 Este 17 Sur 0 946.2 -- 80
2020-11-12 03:00:00 11.1 5 Sudeste 8 Este 0 946.4 -- 81
2020-11-12 02:00:00 12.1 5 Este 9 Este 0 947 -- 78
2020-11-12 01:00:00 12.2 7 Sudeste 22 Sur 0 947.4 -- 77
2020-11-12 00:00:00 12.7 17 Sur 25 Sur 0 947.2 -- 77
2020-11-11 23:00:00 13 18 Sur 23 Sur 0 947.4 -- 77
2020-11-11 22:00:00 12 10 Sudeste 13 Sudeste 0 947 -- 72
2020-11-11 21:00:00 12.2 6 Sudeste 9 Sudeste 0 947.1 -- 70
2020-11-11 20:00:00 13 10 Sudeste 18 Sur 0 947 -- 74
2020-11-11 19:00:00 13.5 6 Sudeste 12 Sudeste 0 947.1 -- 68
2020-11-11 18:00:00 14.8 9 Sudeste 16 Sudeste 0 946.6 -- 67
2020-11-11 17:00:00 16.8 12 Sudeste 18 Sudeste 0 946.5 -- 59
2020-11-11 16:00:00 17.2 11 Este 19 Sudeste 0 946.4 -- 59
2020-11-11 15:00:00 18.5 9 Sudeste 24 Sudeste 0 946.7 -- 53
2020-11-11 14:00:00 18.3 17 Sudeste 32 Sudeste 0 946.8 -- 52
2020-11-11 13:00:00 17.6 19 Sudeste 32 Sudeste 0 947.5 -- 57
2020-11-11 12:00:00 16.9 18 Sur 29 Sur 0 948.1 -- 61
2020-11-11 11:00:00 15.9 18 Sudeste 27 Sudeste 0 948.3 -- 72
2020-11-11 10:00:00 13 9 Este 14 Este 0 948.2 -- 80
2020-11-11 09:00:00 10.6 9 Sudeste 14 Este 0 948.1 -- 87
2020-11-11 08:00:00 9.1 11 Sudeste 19 Sudeste 0 947.8 -- 88
2020-11-11 07:00:00 9.6 16 Sudeste 21 Sudeste 0 947.9 -- 88
2020-11-11 06:00:00 9.3 14 Sudeste 21 Sudeste 0 947.7 -- 86
2020-11-11 05:00:00 10.1 9 Este 19 Sudeste 0 947.9 -- 81
2020-11-11 04:00:00 11.2 14 Sudeste 21 Sudeste 0 948.6 -- 78
2020-11-11 03:00:00 10.4 12 Sudeste 20 Sudeste 0 948.8 -- 78
2020-11-11 02:00:00 10.5 12 Sudeste 16 Sudeste 0 949.3 -- 78
2020-11-11 01:00:00 11 10 Sudeste 13 Sudeste 0 949.3 -- 78
2020-11-11 00:00:00 11 10 Este 14 Sudeste 0 949.6 -- 80
2020-11-10 23:00:00 11.5 12 Sudeste 15 Este 0 949.4 -- 79
2020-11-10 22:00:00 12.1 14 Sudeste 22 Sudeste 0 949.4 -- 78
2020-11-10 21:00:00 12.2 10 Este 18 Este 0 949.3 -- 79
2020-11-10 20:00:00 12.5 6 Este 11 Nordeste 0 949.4 -- 77
2020-11-10 19:00:00 13.4 4 Este 12 Nordeste 0 949.2 -- 72
2020-11-10 18:00:00 15.4 6 Nordeste 19 Este 0 949.1 -- 63
2020-11-10 17:00:00 16.5 12 Nordeste 27 Este 0 949.1 -- 58
2020-11-10 16:00:00 16.9 15 Nordeste 23 Nordeste 0 948.9 -- 58
2020-11-10 15:00:00 16.9 16 Nordeste 27 Nordeste 0 948.9 -- 57
2020-11-10 14:00:00 16.6 9 Nordeste 21 Este 0 949.4 -- 64
2020-11-10 13:00:00 15.6 12 Este 17 Nordeste 0 950.1 -- 70
2020-11-10 12:00:00 14.4 9 Este 14 Este 0 950.6 -- 76
2020-11-10 11:00:00 13.6 8 Este 12 Este 0 950.6 -- 81
2020-11-10 10:00:00 12.6 5 Nordeste 8 Este 0 950.6 -- 83
2020-11-10 09:00:00 11 3 Sudeste 5 Sudeste 0 950.2 -- 94
2020-11-10 08:00:00 8.8 3 Este 8 Este 0 949.5 -- 94
2020-11-10 07:00:00 8.7 4 Este 7 Nordeste 0 949.1 -- 93
2020-11-10 06:00:00 8.9 5 Este 8 Este 0 948.9 -- 93
2020-11-10 05:00:00 9.3 3 Sudeste 5 Este 0 948.9 -- 94
2020-11-10 04:00:00 9.8 0 Calma 5 Nordeste 0.2 949 -- 93
2020-11-10 03:00:00 9.7 3 Este 5 Sudeste 0 949.1 -- 92
2020-11-10 02:00:00 10.1 2 Sudeste 5 Nordeste 0 949.2 -- 92
2020-11-10 01:00:00 10.2 0 Calma 5 Nordeste 0 949.3 -- 90
2020-11-10 00:00:00 10.6 0 Calma 6 Sudeste 0 949.3 -- 89
2020-11-09 23:00:00 10.7 4 Sudeste 6 Sudeste 0 949.4 -- 86
2020-11-09 22:00:00 11.4 3 Norte 6 Norte 0 949.3 -- 85
2020-11-09 21:00:00 12 2 Nordeste 4 Nordeste 0 948.9 -- 83
2020-11-09 20:00:00 12.5 2 Norte 9 Norte 0 948.9 -- 81
2020-11-09 19:00:00 13.4 4 Norte 12 Norte 0 948.4 -- 77
2020-11-09 18:00:00 15 5 Norte 12 Norte 0 947.9 -- 71
2020-11-09 17:00:00 15.5 9 Norte 18 Norte 0 947.6 -- 69
2020-11-09 16:00:00 16.2 10 Noroeste 16 Norte 0 947.4 -- 60
2020-11-09 15:00:00 16.5 7 Noroeste 16 Norte 0 947.3 -- 59
2020-11-09 14:00:00 16.1 8 Noroeste 14 Noroeste 0 947.4 -- 64
2020-11-09 13:00:00 15.2 5 Noroeste 13 Noroeste 0 947.9 -- 72
2020-11-09 12:00:00 14.7 6 Norte 13 Noroeste 0 948.4 -- 74
2020-11-09 11:00:00 13.7 4 Norte 8 Oeste 0 948.2 -- 79
2020-11-09 10:00:00 13 2 Nordeste 6 Nordeste 0 948 -- 89
2020-11-09 09:00:00 12 3 Este 7 Nordeste 0 947.4 -- 94
2020-11-09 08:00:00 11.8 3 Norte 7 Oeste 0 946.5 -- 93
2020-11-09 07:00:00 11.8 2 Oeste 8 Noroeste 0 946.1 -- 93
2020-11-09 06:00:00 11.6 4 Noroeste 12 Noroeste 0 945.5 -- 94
2020-11-09 05:00:00 11.7 9 Noroeste 14 Noroeste 0.6 945.4 -- 94
2020-11-09 04:00:00 12 12 Noroeste -- -- 3.8 945.3 -- 93
2020-11-09 03:00:00 13.1 13 Sudoeste 25 Sudoeste 0 945.3 -- 92
2020-11-09 02:00:00 13.2 18 Sur 30 Sur 0 945.2 -- 91
2020-11-09 01:00:00 13 21 Sur 30 Sur 0 945.5 -- 92
2020-11-09 00:00:00 13 20 Sur 28 Sudoeste 0.2 945.7 -- 92
2020-11-08 23:00:00 13.1 17 Sur 24 Sudoeste 0 945.7 -- 91
2020-11-08 22:00:00 13.3 19 Sudoeste 27 Sudoeste 0.6 945.5 -- 90
2020-11-08 21:00:00 13.9 18 Sur 30 Sudeste 0 945.6 -- 83
2020-11-08 20:00:00 14.1 15 Sur 34 Sur 0 945.5 -- 81
2020-11-08 19:00:00 14.3 15 Sur 29 Sur 0 945.2 -- 79
2020-11-08 18:00:00 14.9 17 Sur 28 Sudoeste 0 945.1 -- 74
2020-11-08 17:00:00 15.7 17 Sur 30 Sur 0 945 -- 68
2020-11-08 16:00:00 17.1 21 Sur 33 Sudoeste 0 945.2 -- 65
2020-11-08 15:00:00 16.8 16 Sur 28 Sur 0 945.1 -- 69
2020-11-08 14:00:00 15.9 15 Sur 24 Sur 0 945.7 -- 71
2020-11-08 13:00:00 16.3 17 Sur 29 Sudoeste 0 946.4 -- 67
2020-11-08 12:00:00 14.8 19 Sur 30 Sur 0 946.9 -- 76
2020-11-08 11:00:00 14.9 21 Sur 29 Sur 0 947 -- 79
2020-11-08 10:00:00 14.1 15 Sur 34 Sur 0 947 -- 82
2020-11-08 09:00:00 12.2 21 Sur 32 Sur 0 946.5 -- 89
2020-11-08 08:00:00 12.1 13 Sudeste 27 Sudeste 0 946.3 -- 89
2020-11-08 07:00:00 12.2 13 Sudeste 27 Sur 0 946.5 -- 89
2020-11-08 06:00:00 11.9 9 Sudeste 28 Sur 0 946.3 -- 89
2020-11-08 05:00:00 11.5 14 Sur 27 Sur 0 946.3 -- 92
2020-11-08 04:00:00 11.7 14 Sur 33 Sur 0 946.2 -- 90
2020-11-08 03:00:00 11.8 19 Sur 30 Sur 0 946.5 -- 90
2020-11-08 02:00:00 11.8 19 Sur 28 Sur 0 946.8 -- 89
2020-11-08 01:00:00 12 19 Sur 33 Sudoeste 0 947.1 -- 89
2020-11-08 00:00:00 12.3 17 Sur 30 Sur 0 947.4 -- 87
2020-11-07 23:00:00 12.4 15 Sur 29 Sur 0 947.3 -- 88
2020-11-07 22:00:00 12.4 15 Sur 34 Sur 0 947.2 -- 84
2020-11-07 21:00:00 12.7 19 Sur 27 Sur 0 947 -- 82
2020-11-07 20:00:00 13 17 Sur 28 Sur 0 946.9 -- 80
2020-11-07 19:00:00 13.6 15 Sur 24 Sur 0 946.5 -- 76
2020-11-07 18:00:00 14.5 15 Sur 26 Sudoeste 0 946 -- 72
2020-11-07 17:00:00 15.4 17 Sudoeste 28 Sudoeste 0 945.8 -- 67
2020-11-07 16:00:00 16.5 14 Sudoeste 32 Sudoeste 0 945.4 -- 62
2020-11-07 15:00:00 16.5 20 Sudoeste 36 Sudoeste 0 945.3 -- 60
2020-11-07 14:00:00 16 24 Sudoeste 34 Sudoeste 0 945.2 -- 62
2020-11-07 13:00:00 15 17 Sudoeste 30 Sudoeste 0 945.1 -- 69
2020-11-07 12:00:00 14.6 15 Sudoeste 36 Sudoeste 0 945.1 -- 77
2020-11-07 11:00:00 14.1 21 Sudoeste 28 Sudoeste 0 944.2 -- 80
2020-11-07 10:00:00 12.2 18 Sudoeste 37 Sudoeste 0 943.4 -- 87
2020-11-07 09:00:00 11.1 25 Sudoeste 33 Sudoeste 0 941.5 -- 91
2020-11-07 08:00:00 10.5 23 Sudoeste 36 Sudoeste 0 940.5 -- 93
2020-11-07 07:00:00 10.7 17 Sur 36 Sur 0 939.4 -- 92
2020-11-07 06:00:00 10.8 24 Sur 40 Sur 0.2 938.5 -- 92
2020-11-07 05:00:00 11 27 Sur 38 Sur 0 937.9 -- 89
2020-11-07 04:00:00 10.9 19 Sur 42 Sudoeste 0.6 937.5 -- 87
2020-11-07 03:00:00 11.3 30 Sudeste 45 Sudeste 1.8 937.7 -- 88
2020-11-07 02:00:00 11.9 16 Sur 38 Sudoeste 0.6 937.3 -- 80
2020-11-07 01:00:00 12.7 24 Sudoeste 52 Sur 1.6 937.9 -- 86
2020-11-07 00:00:00 14.1 26 Sudeste 39 Sudeste 0.4 937 -- 79
2020-11-06 23:00:00 15.1 22 Sudeste 39 Sudeste 0 937.3 -- 72
2020-11-06 22:00:00 14.9 19 Sur 48 Sudoeste 0 937.2 -- 76
2020-11-06 21:00:00 15.3 24 Sur 48 Sur 0 937.3 -- 69
2020-11-06 20:00:00 14.8 19 Sudeste 40 Sur 0 937 -- 72
2020-11-06 19:00:00 15.3 22 Sudoeste 36 Sudoeste 0 938 -- 68
2020-11-06 18:00:00 16.3 24 Sudoeste 42 Sur 0 936.8 -- 67
2020-11-06 17:00:00 17.5 27 Sudoeste 54 Sur 0 936.7 -- 69
2020-11-06 16:00:00 18.9 22 Sur 51 Sur 0 936 -- 56
2020-11-06 15:00:00 20.4 25 Sudeste 42 Sudeste 0 935.7 -- 51
2020-11-06 14:00:00 20.9 19 Sur 39 Sudeste 0 936.2 -- 51
2020-11-06 13:00:00 20.6 15 Sur 39 Sur 0 936.9 -- 48
2020-11-06 12:00:00 19.7 18 Sur 48 Sudeste 0 937.3 -- 49
2020-11-06 11:00:00 18.4 32 Sudeste 57 Sudeste 0 936.9 0.5 50
2020-11-06 10:00:00 14.6 17 Este 26 Sudeste 0 936.4 -- 71
2020-11-06 09:00:00 13.1 18 Este 28 Sudeste 0 936.1 -- 74
2020-11-06 08:00:00 13.2 17 Sudeste 24 Sudeste 0 936.4 -- 71
2020-11-06 07:00:00 13.3 14 Sudeste 21 Este 0 937.1 -- 71
2020-11-06 06:00:00 14.2 17 Sudeste 25 Este 0 938.2 -- 67
2020-11-06 05:00:00 14 17 Sudeste 40 Sur 0 937.9 -- 72
2020-11-06 04:00:00 15.6 32 Sur 47 Sudeste 0 938.8 -- 65
2020-11-06 03:00:00 16 19 Sudeste -- -- 0 938.8 -- 57
2020-11-06 02:00:00 14.6 21 Sudeste 57 Sudeste 0 939.1 -- 69
2020-11-06 01:00:00 14.9 36 Sudeste 57 Sudeste 0 939.2 -- 69
2020-11-06 00:00:00 14.5 27 Sudeste 42 Sudeste 0 938.4 -- 70
2020-11-05 23:00:00 12.4 18 Sudeste 28 Sudeste 0 938.3 -- 85
2020-11-05 22:00:00 12.2 14 Este 32 Sudeste 0 938.2 -- 87
2020-11-05 21:00:00 13 20 Sudeste 36 Sudeste 0 938.3 -- 84
2020-11-05 20:00:00 13.2 28 Sudeste 39 Sudeste 0 938.1 -- 84
2020-11-05 19:00:00 13 27 Sudeste 34 Sudeste 0 937.7 -- 88
2020-11-05 18:00:00 13.6 20 Sudeste 28 Sudeste 0 937.1 -- 89
2020-11-05 17:00:00 13.9 20 Sudeste 32 Este 0 937.1 -- 87
2020-11-05 16:00:00 13.2 25 Sudeste 33 Sudeste 0 937.5 -- 90
2020-11-05 15:00:00 12.3 19 Este 27 Sudeste 0.2 937.5 -- 93
2020-11-05 14:00:00 12.2 17 Sudeste 25 Sudeste 0 938.2 -- 93
2020-11-05 13:00:00 12.7 18 Sudeste 34 Sudeste 0 938.6 -- 92
2020-11-05 12:00:00 13 18 Sudeste 25 Sudeste 0 939 -- 92
2020-11-05 11:00:00 12.3 20 Sudeste 34 Sudeste 0.2 939 -- 91
2020-11-05 10:00:00 12.1 19 Sudeste 45 Sudeste 0 938.8 -- 89
2020-11-05 09:00:00 11.7 26 Sur 45 Sudeste 0 937.9 -- 92
2020-11-05 08:00:00 11.5 31 Sudeste 54 Sudeste 0.6 936.9 -- 90
2020-11-05 07:00:00 11.9 26 Sudeste 41 Sudeste 3.2 936.1 -- 93
2020-11-05 06:00:00 11.5 24 Sudeste 35 Sudeste 1 935.6 -- 95
2020-11-05 05:00:00 10.9 12 Sudeste 22 Este 1.6 935.4 -- 95
2020-11-05 04:00:00 11 14 Este 31 Sudeste 3 936 -- 95
2020-11-05 03:00:00 11.2 20 Sudeste 27 Sudeste 3.2 936.8 -- 95
2020-11-05 02:00:00 11.4 12 Este 16 Este 0.2 936.6 -- 95
2020-11-05 01:00:00 11.3 8 Este 18 Este 0 937.1 -- 95
2020-11-05 00:00:00 11.3 15 Sudeste 27 Sudeste 0 937.5 -- 94
2020-11-04 23:00:00 11.5 21 Sudeste 28 Sudeste 0 937.3 -- 93
2020-11-04 22:00:00 11.2 17 Este -- -- 0 937.2 -- 93
2020-11-04 21:00:00 11.1 15 Este 26 Sudeste 0 937 -- 93
2020-11-04 20:00:00 12.5 15 Sudeste 23 Sudeste 1 937.1 -- 94
2020-11-04 19:00:00 12.4 16 Sudeste 28 Sudeste 2 937 -- 91
2020-11-04 18:00:00 12.5 15 Sudeste 32 Sur 5 937.4 -- 91
2020-11-04 17:00:00 12.5 24 Sudeste 37 Sur 0.6 937.6 -- 88
2020-11-04 16:00:00 13.2 18 Sudeste 28 Sudeste 0 937.8 -- 90
2020-11-04 15:00:00 13.9 10 Sudeste 21 Sudeste 0 938.5 -- 90
2020-11-04 14:00:00 14 12 Sur 24 Sudeste 0 939.4 -- 87
2020-11-04 13:00:00 14.5 12 Sur 24 Sur 0 940.3 -- 83
2020-11-04 12:00:00 15.1 15 Sur 26 Sudoeste 0 941 -- 81
2020-11-04 11:00:00 15.4 17 Sur -- -- 0 941.5 -0.8 80
2020-11-04 10:00:00 11.7 4 Este 11 Este 0 941.9 -- 95
2020-11-04 09:00:00 10.5 5 Sudeste 11 Este 0.2 942.1 -- 94
2020-11-04 08:00:00 10.7 0 Calma 4 Sudeste 0 942.3 -- 93
2020-11-04 07:00:00 11.3 2 Sudoeste 9 Sudoeste 0 942.7 -- 92
2020-11-04 06:00:00 11.4 6 Sudoeste 13 Noroeste 0 943.3 -- 92
2020-11-04 05:00:00 11.7 2 Sudeste 6 Sudeste 0 943.6 -- 91
2020-11-04 04:00:00 11.2 3 Sudoeste 5 Sur 0 944.2 -- 87
2020-11-04 03:00:00 11.3 2 Este 7 Norte 0 945.2 -- 86
2020-11-04 02:00:00 11.7 4 Norte 7 Norte 0 945.8 -- 87
2020-11-04 01:00:00 12 2 Norte 8 Norte 0 946.4 -- 88
2020-11-04 00:00:00 12.5 3 Nordeste 6 Nordeste 0 946.8 -- 91
2020-11-03 23:00:00 13.3 3 Nordeste 7 Este 0 947.3 -- 91
2020-11-03 22:00:00 14.1 6 Este 9 Este 0 947.5 -- 91
2020-11-03 21:00:00 14.5 5 Este 9 Sudeste 0 948 -- 91
2020-11-03 20:00:00 14.4 8 Sudeste 12 Sudeste 0 948.2 -- 91
2020-11-03 19:00:00 14.9 4 Nordeste 11 Nordeste 0 948.1 -- 89
2020-11-03 18:00:00 15.4 5 Norte 14 Norte 0 947.9 -- 88
2020-11-03 17:00:00 15.4 5 Norte 12 Noroeste 0 947.9 -- 90
2020-11-03 16:00:00 15.2 8 Norte 15 Noroeste 0.2 948 -- 93
2020-11-03 15:00:00 15.1 9 Norte 15 Noroeste 0 948.2 -- 94
2020-11-03 14:00:00 14.5 9 Norte 17 Noroeste 0 948.3 -- 95
2020-11-03 13:00:00 14.1 10 Norte 16 Norte 1 948.7 -- 95
2020-11-03 12:00:00 14.7 9 Norte 16 Norte 0.4 948.8 -- 94
2020-11-03 11:00:00 15.2 7 Norte 13 Norte 0 948.8 -- 95
2020-11-03 10:00:00 14.8 5 Norte 12 Norte 0 948.7 -- 96
2020-11-03 09:00:00 14.5 6 Nordeste 11 Nordeste 0 948.1 -- 96
2020-11-03 08:00:00 14.4 5 Nordeste 10 Norte 0 947.5 -- 95
2020-11-03 07:00:00 14.5 5 Nordeste 14 Norte 0 947.7 -- 95
2020-11-03 06:00:00 14.5 5 Norte 13 Norte 0 947.6 -- 95
2020-11-03 05:00:00 14.4 7 Norte 14 Norte 0 947.8 -- 94
2020-11-03 04:00:00 14.3 4 Norte 9 Norte 0 948 -- 94
2020-11-03 03:00:00 14 5 Noroeste 8 Noroeste 0 948.1 -- 93
2020-11-03 02:00:00 14.2 5 Noroeste 9 Noroeste 0 948 -- 92
2020-11-03 01:00:00 14.7 2 Sudoeste 10 Noroeste 0 948.2 -- 91
2020-11-03 00:00:00 15 6 Noroeste 11 Noroeste 0 948.4 -- 91
2020-11-02 23:00:00 15.4 4 Norte 10 Noroeste 0 948.4 -- 90
2020-11-02 22:00:00 15.7 6 Norte 13 Norte 0 948.5 -- 90
2020-11-02 21:00:00 16.1 6 Norte 16 Noroeste 0 948.6 -- 88
2020-11-02 20:00:00 16.8 4 Norte 13 Noroeste 0 948.4 -- 83
2020-11-02 19:00:00 17.4 7 Norte 18 Noroeste 0 947.8 -- 71
2020-11-02 18:00:00 18.3 10 Noroeste 19 Norte 0 947.4 -- 64
2020-11-02 17:00:00 19.8 11 Norte 19 Norte 0 947.1 -- 58
2020-11-02 16:00:00 22.2 10 Norte 16 Noroeste 0 946.9 -- 47
2020-11-02 15:00:00 23.7 4 Oeste 11 Noroeste 0 947.2 -- 40
2020-11-02 14:00:00 21.9 3 Nordeste 12 Norte 0 947.7 -- 48
2020-11-02 13:00:00 20.6 5 Norte 12 Norte 0 948.5 -- 55
2020-11-02 12:00:00 20.3 5 Este 12 Este 0 948.9 -- 52
2020-11-02 11:00:00 18.8 9 Este 12 Sudeste 0 948.7 -- 63
2020-11-02 10:00:00 16.1 8 Este 10 Este 0 948.5 -- 71
2020-11-02 09:00:00 14.4 8 Este 9 Este 0 948.2 -- 72
2020-11-02 08:00:00 12.2 6 Este 8 Nordeste 0 947.7 -- 76
2020-11-02 07:00:00 11.5 4 Este 5 Este 0 947.6 -- 84
2020-11-02 06:00:00 11.5 4 Este 7 Norte 0 947.6 -- 81
2020-11-02 05:00:00 12.5 5 Este 8 Este 0 947.5 -- 79
2020-11-02 04:00:00 12 4 Este 5 Sudeste 0 947.7 -- 79
2020-11-02 03:00:00 12.6 4 Este 5 Este 0 948 -- 80
2020-11-02 02:00:00 13.2 2 Sudeste 5 Sudeste 0 948.2 -- 78
2020-11-02 01:00:00 13.3 3 Sudeste 7 Norte 0 948.7 -- 81
2020-11-02 00:00:00 13.9 2 Sudeste 5 Sudeste 0 948.9 -- 81
2020-11-01 23:00:00 14.5 3 Norte 8 Sudeste 0 949.1 -- 83
2020-11-01 22:00:00 14.4 4 Sudeste 8 Nordeste 0 949 -- 83
2020-11-01 21:00:00 15.1 3 Este 6 Nordeste 0 948.9 -- 76
2020-11-01 20:00:00 16.5 3 Norte 10 Norte 0 948.8 -- 72
2020-11-01 19:00:00 17.9 3 Norte 6 Norte 0 948.6 -- 66
2020-11-01 18:00:00 19.8 4 Norte 9 Norte 0 948.6 -- 61
2020-11-01 17:00:00 20.8 6 Noroeste 13 Noroeste 0 948.7 -- 55
2020-11-01 16:00:00 21.7 6 Norte 13 Norte 0 949 -- 56
2020-11-01 15:00:00 21.8 5 Norte 12 Noroeste 0 949.2 -- 52
2020-11-01 14:00:00 20.8 6 Este 17 Este 0 949.7 -- 52
2020-11-01 13:00:00 20.3 7 Nordeste 13 Nordeste 0 950.3 -- 60
2020-11-01 12:00:00 19.4 8 Este 15 Este 0 950.8 -- 64
2020-11-01 11:00:00 18.7 10 Este 14 Este 0 950.8 -- 68
2020-11-01 10:00:00 16.7 6 Este 8 Sudeste 0 950.9 -- 80
2020-11-01 09:00:00 15 3 Norte 7 Este 0 950.3 -- 82
2020-11-01 08:00:00 12.6 6 Este 9 Este 0 949.6 -- 84
2020-11-01 07:00:00 13.2 4 Nordeste 6 Sudeste 0 949.6 -- 86
2020-11-01 06:00:00 13.2 0 Calma 5 Sudeste 0 949.8 -- 87
2020-11-01 05:00:00 13.4 0 Calma 6 Noroeste 0 949.6 -- 87
2020-11-01 04:00:00 13.5 3 Sudeste 7 Norte 0 950 -- 84
2020-11-01 03:00:00 13.7 3 Oeste 10 Noroeste 0 950.6 -- 84
2020-11-01 02:00:00 14.3 6 Noroeste 13 Noroeste 0 950.6 -- 82
2020-11-01 01:00:00 14.6 5 Oeste 13 Noroeste 0 950.8 -- 80
2020-11-01 00:00:00 15.3 5 Noroeste 9 Noroeste 0 950.8 -- 68
2020-10-31 23:00:00 15.7 4 Oeste 9 Noroeste 0 950.7 -- 67
2020-10-31 22:00:00 16.1 3 Noroeste 8 Norte 0 950.4 -- 66
2020-10-31 21:00:00 16 4 Noroeste 13 Noroeste 0 950.6 -- 69
2020-10-31 20:00:00 16.8 8 Noroeste 14 Noroeste 0 950.3 -- 67
2020-10-31 19:00:00 18.6 6 Noroeste 10 Noroeste 0 949.9 -- 60
2020-10-31 18:00:00 21.3 6 Norte 18 Noroeste 0 949.4 -- 47
2020-10-31 17:00:00 22.3 12 Noroeste 21 Noroeste 0 949.6 -- 45
2020-10-31 16:00:00 23.3 5 Noroeste 17 Noroeste 0 949.4 -- 40
2020-10-31 15:00:00 23.2 7 Noroeste 20 Noroeste 0 949.5 -- 39
2020-10-31 14:00:00 24.3 6 Oeste 23 Oeste 0 950 -- 34
2020-10-31 13:00:00 23.4 4 Oeste 18 Oeste 0 950.5 -- 37
2020-10-31 12:00:00 22.8 5 Sudoeste 10 Oeste 0 950.8 -- 40
2020-10-31 11:00:00 21.1 5 Noroeste 9 Noroeste 0 951.1 -- 44
2020-10-31 10:00:00 19 4 Oeste 6 Noroeste 0 951.1 -- 56
2020-10-31 09:00:00 16.8 2 Este 6 Sudeste 0 950.2 -- 65
2020-10-31 08:00:00 13.8 2 Sur 7 Oeste 0 949.6 -- 73
2020-10-31 07:00:00 13.7 3 Sudoeste 8 Noroeste 0 949.7 -- 75
2020-10-31 06:00:00 13.8 4 Oeste 10 Oeste 0 949.6 -- 70
2020-10-31 05:00:00 14.7 9 Oeste 11 Oeste 0 949.1 -- 61
2020-10-31 04:00:00 15.4 5 Sudoeste 7 Sudeste 0 949 -- 52
2020-10-31 03:00:00 14.9 3 Sur 4 Sur 0 949.1 -- 55
2020-10-31 02:00:00 15.6 4 Sudeste 5 Sudeste 0 949.3 -- 56
2020-10-31 01:00:00 15.6 4 Sudeste 7 Sudeste 0 949.4 -- 56
2020-10-31 00:00:00 15.9 4 Sudoeste 9 Oeste 0 949.5 -- 59
2020-10-30 23:00:00 16 0 Calma 6 Sur 0 949.5 -- 59
2020-10-30 22:00:00 16.2 3 Sudeste 6 Sudeste 0 949.4 -- 58
2020-10-30 21:00:00 16.1 5 Sudeste 9 Sudoeste 0 949.2 -- 61
2020-10-30 20:00:00 17.3 7 Sur 12 Sur 0 949.1 -- 57
2020-10-30 19:00:00 18.2 7 Sur 10 Sur 0 948.7 -- 52
2020-10-30 18:00:00 21.2 7 Sudoeste 11 Sudoeste 0 948.6 -- 46
2020-10-30 17:00:00 23.8 6 Sur 15 Sur 0 948.4 -- 36
2020-10-30 16:00:00 24.6 8 Sudeste 15 Sudeste 0 948.5 -- 33
2020-10-30 15:00:00 24.8 6 Sudeste 23 Sudeste 0 948.7 -- 32
2020-10-30 14:00:00 24.1 9 Sudeste 22 Sudeste 0 949 -- 38
2020-10-30 13:00:00 23.2 10 Sudeste 28 Sudeste 0 949.6 -- 39
2020-10-30 12:00:00 20.9 7 Este 18 Este 0 949.9 -- 52
2020-10-30 11:00:00 18.2 13 Este 18 Este 0 950 -- 66
2020-10-30 10:00:00 15.3 6 Nordeste 16 Este 0 950 -- 75
2020-10-30 09:00:00 13.6 5 Este 12 Este 0 949.7 -- 80
2020-10-30 08:00:00 12.6 8 Este 10 Este 0 949 -- 79
2020-10-30 07:00:00 13.1 5 Este 9 Este 0 948.9 -- 78
2020-10-30 06:00:00 13.6 4 Este 7 Este 0 948.9 -- 78
2020-10-30 05:00:00 13.3 6 Este 12 Este 0 948.9 -- 80
2020-10-30 04:00:00 12.5 4 Este 7 Este 0 949.1 -- 83
2020-10-30 03:00:00 13.1 4 Este 5 Nordeste 0 949.1 -- 80
2020-10-30 02:00:00 14.7 4 Nordeste 10 Este 0 949.4 -- 74
2020-10-30 01:00:00 16.1 5 Este 19 Sudeste 0 949.5 -- 67
2020-10-30 00:00:00 16.6 15 Sudeste 20 Sudeste 0 949.9 -- 69
2020-10-29 23:00:00 15.9 10 Sudeste 20 Sudeste 0 950 -- 72
2020-10-29 22:00:00 16.4 13 Sudeste 20 Sudeste 0 949.9 -- 71
2020-10-29 21:00:00 16.2 11 Sudeste 17 Nordeste 0 949.6 -- 70
2020-10-29 20:00:00 17.5 15 Sur 18 Sur 0 949.4 -- 53
2020-10-29 19:00:00 17.9 16 Sur 17 Sur 0 949 -- 51
2020-10-29 18:00:00 20.9 9 Sudeste 13 Sudeste 0 948.8 -- 56
2020-10-29 17:00:00 22.3 10 Este 19 Este 0 948.7 -- 48
2020-10-29 16:00:00 22.7 10 Este 16 Este 0 948.6 -- 48
2020-10-29 15:00:00 22.1 10 Este 19 Este 0 948.9 -- 49
2020-10-29 14:00:00 21.4 10 Este 20 Este 0 949.5 -- 54
2020-10-29 13:00:00 19.8 12 Este 21 Este 0 950.3 -- 63
2020-10-29 12:00:00 17.9 16 Este 21 Este 0 950.7 -- 73
2020-10-29 11:00:00 16.1 15 Este 20 Este 0 950.8 -- 80
2020-10-29 10:00:00 15 14 Este 20 Este 0 950.7 -- 83
2020-10-29 09:00:00 13.9 15 Este 19 Sudeste 0 950 -- 87
2020-10-29 08:00:00 11.6 13 Este 18 Este 0 949.6 -- 94
2020-10-29 07:00:00 11.7 12 Este 15 Este 0 949.3 -- 93
2020-10-29 06:00:00 11.9 10 Este 17 Este 0 949 -- 93
2020-10-29 05:00:00 12.1 12 Este 15 Este 0 948.9 -- 91
2020-10-29 04:00:00 12.4 9 Este 12 Este 0 949 -- 91
2020-10-29 03:00:00 12.5 9 Este 13 Este 0 949 -- 91
2020-10-29 02:00:00 12.9 11 Este 18 Sudeste 0 949 -- 90
2020-10-29 01:00:00 13 5 Este 10 Este 0 949.2 -- 90
2020-10-29 00:00:00 13.5 8 Este 12 Este 0 949.4 -- 90
2020-10-28 23:00:00 13.6 6 Este 10 Este 0 949.6 -- 90
2020-10-28 22:00:00 13 6 Este 14 Nordeste 0 949.6 -- 90
2020-10-28 21:00:00 13.8 7 Norte 16 Norte 0 949.4 -- 88
2020-10-28 20:00:00 14.7 7 Norte 13 Norte 0 949 -- 83
2020-10-28 19:00:00 15.8 5 Noroeste 11 Norte 0 948.1 -- 78
2020-10-28 18:00:00 17.6 6 Norte 15 Norte 0 947.6 -- 70
2020-10-28 17:00:00 18.1 9 Norte 20 Norte 0 947.6 -- 68
2020-10-28 16:00:00 18.4 9 Norte 22 Norte 0 947.6 -- 67
2020-10-28 15:00:00 17.8 8 Norte 13 Norte 0 947.8 -- 69
2020-10-28 14:00:00 16.1 8 Nordeste 18 Este 0 948 -- 72
2020-10-28 13:00:00 14.9 11 Este 17 Este 0 948.4 -- 77
2020-10-28 12:00:00 13 8 Este 12 Este 0 948.9 -- 81
2020-10-28 11:00:00 12.1 7 Nordeste 13 Este 0 948.3 -- 83
2020-10-28 10:00:00 11.5 9 Este 15 Nordeste 0 947.8 -- 84
2020-10-28 09:00:00 10.8 6 Nordeste 9 Este 0 947.5 -- 86
2020-10-28 08:00:00 10.1 6 Este 9 Este 0 946.6 -- 88
2020-10-28 07:00:00 9.2 3 Nordeste 7 Nordeste 0 946.4 -- 87
2020-10-28 06:00:00 9.2 3 Noroeste 7 Noroeste 0 946 -- 85
2020-10-28 05:00:00 9.3 4 Oeste 9 Oeste 0 945.9 -- 85
2020-10-28 04:00:00 9.2 5 Oeste 10 Oeste 0 945.9 -- 86
2020-10-28 03:00:00 9.6 5 Noroeste 8 Noroeste 0 946 -- 85
2020-10-28 02:00:00 10 3 Oeste 5 Noroeste 0 946.2 -- 83
2020-10-28 01:00:00 9.8 0 Calma 4 Sur 0 946.3 -- 83
2020-10-28 00:00:00 9.1 3 Sudeste 5 Sudeste 0 946.4 -- 84
2020-10-27 23:00:00 9.2 4 Sudeste 6 Sudeste 0 946.5 -- 83
2020-10-27 22:00:00 9.6 5 Sudeste 6 Sudeste 0 946.3 -- 82
2020-10-27 21:00:00 10.5 3 Este 5 Norte 0 946.2 -- 79
2020-10-27 20:00:00 11.7 4 Nordeste 13 Norte 0 946 -- 75
2020-10-27 19:00:00 12.3 6 Norte 19 Norte 0 946.1 -- 72
2020-10-27 18:00:00 13.9 9 Noroeste 19 Noroeste 0 945.5 -- 64
2020-10-27 17:00:00 14.9 10 Noroeste 19 Noroeste 0 945.6 -- 59
2020-10-27 16:00:00 15 12 Norte 23 Norte 0 945.8 -- 57
2020-10-27 15:00:00 15.3 9 Norte 20 Noroeste 0 945.7 -- 57
2020-10-27 14:00:00 14.9 9 Norte 21 Norte 0 946.1 -- 58
2020-10-27 13:00:00 14.1 8 Noroeste 17 Noroeste 0 946.6 -- 56
2020-10-27 12:00:00 13 6 Noroeste 14 Noroeste 0 947 -- 58
2020-10-27 11:00:00 11.6 8 Noroeste 13 Noroeste 0 947.1 -- 67
2020-10-27 10:00:00 9.1 4 Noroeste 6 Noroeste 0 947.2 -- 75
2020-10-27 09:00:00 7.6 4 Oeste 9 Oeste 0 946.6 -- 84
2020-10-27 08:00:00 6.4 7 Oeste 9 Oeste 0 946.2 -- 87
2020-10-27 07:00:00 6 5 Oeste 14 Noroeste 0 945.9 -- 87
2020-10-27 06:00:00 6.2 5 Oeste 9 Noroeste 0 945.8 -- 86
2020-10-27 05:00:00 6.6 9 Oeste 13 Oeste 0 945.8 -- 86
2020-10-27 04:00:00 6.8 6 Sudoeste 13 Oeste 0 946 -- 84
2020-10-27 03:00:00 7 6 Sudoeste 10 Sudoeste 0 946.2 -- 84
2020-10-27 02:00:00 7.4 5 Sudoeste 11 Noroeste 0 946.7 -- 83
2020-10-27 01:00:00 7.8 5 Sudoeste 17 Noroeste 0 947 -- 80
2020-10-27 00:00:00 8.6 8 Oeste 21 Noroeste 0 946.9 -- 77